Buck, PA

2:11 PM EDT on June 22, 2017 (GMT -0400)
Tanglewood | | Change Station

Elev 640 ft 39.86 °N, 76.21 °W | Updated 2 seconds ago

Mostly Cloudy
Mostly Cloudy
91.0 °F
Feels Like 94 °F
N
2.2
Wind Variable Wind from NW
Gusts 6.9 mph

Today
High -- | Low -- °F
--% Chance of Precip.
Yesterday
High -- | Low -- °F
Precip. -- in
Pressure 29.96 in
Visibility 10.0 miles
Clouds Few 4100 ft
Heat Index 94 °F
Dew Point 67 °F
Humidity 45%
Rainfall 0.00 in
Snow Depth Not available.
5:36 AM 8:36 PM
Waning Crescent, 3% visible
METAR KLNS 221753Z 27007KT 240V310 10SM FEW041 31/21 A2997 RMK AO2 SLP146 T03060206 10306 20206 58014
Pressure 29.96 in
Visibility 10.0 miles
Clouds Few 4100 ft
Heat Index 94 °F
Dew Point 67 °F
Humidity 45%
Rainfall 0.00 in
Snow Depth Not available.
5:36 AM 8:36 PM
Waning Crescent, 3% visible
METAR KLNS 221753Z 27007KT 240V310 10SM FEW041 31/21 A2997 RMK AO2 SLP146 T03060206 10306 20206 58014

Get Severe Weather Alerts

Thanks for signing up!

Be on the lookout for a verification email in your inbox.

You'll start receiving the daily forecast at 6 AM.

×

10-Day Weather Forecast

Almanac

Astronomy

Jun. 22, 2017 Rise Set
Actual Time
Civil Twilight
Nautical Twilight
Astronomical Twilight
Moon
Length of Visible Light
Length of Day
Tomorrow will be .
, % of the Moon is Illuminated

Today's Extremes

State Highs State Lows

Community

WunderPhotos

Category 6

Welcome to Category 6. This is the collective home for Weather Underground's featured writeups by Dr. Jeff Masters (right), Bob Henson (left), Chris Burt, and other regular contributors.

Nearby

Air Quality

  Air Quality AQ Index Pollutant
Not available.

Snow Depth

Station Depth Elevation

Earthquake Activity

City Distance Mag. Time & Date
Minimum magnitude displayed is 2.5.

Coastal Water Temperatures

Place Temperature

Stations

Nearby Weather Stations

Station Location Temp. Windchill Dew Point Humidity Wind Precip. Elev Updated Type
                   

Watches & Warnings

There are currently no watches in effect.